39.7°F
Current conditions from King Hill
Updated every 5 minutes
 
  Wednesday April 23, 2014

Station Historical Data
Daily Summary for March 21, 2012 Units:  English    Metric   Both
« Previous Day
Next Day »
Daily Weekly Monthly Yearly Custom
  High: Low: Average:
Temperature: 80.3 °F 55.3 °F 66.6 °F
Dew Point: 55.6 °F 44.4 °F 50.3 °F
Humidity: 79% 35% 58%
Wind Speed: 9.0mph 0.0mph 3.4mph
Wind Gust: 15.0mph - -
Wind- - SSW
Pressure: 30.27 in 30.12 in -
Precipitation: 0.00 in    
Historical Graphs
 
 
Tabular Data for March 21, 2012
Time Temperature Dew Point Pressure Wind Wind Speed Wind Gust Humidity Daily Rainfall
00:00 58.4 °F 51.9 °F 30.20 in Calm     79% 0.00 in
00:05 58.3 °F 51.5 °F 30.20 in Calm     78% 0.00 in
00:10 57.9 °F 51.4 °F 30.20 in Calm     79% 0.00 in
00:15 57.7 °F 50.9 °F 30.20 in Calm   1.0 mph 78% 0.00 in
00:20 57.7 °F 50.5 °F 30.20 in NW 2.0 mph 3.0 mph 77% 0.00 in
00:25 57.7 °F 50.5 °F 30.20 in Calm   4.0 mph 77% 0.00 in
00:30 57.8 °F 50.6 °F 30.20 in NW 1.0 mph 4.0 mph 77% 0.00 in
00:40 58.6 °F 51.4 °F 30.20 in SSW 3.0 mph 5.0 mph 77% 0.00 in
00:45 59.0 °F 51.5 °F 30.20 in Calm   5.0 mph 76% 0.00 in
00:50 59.0 °F 51.1 °F 30.20 in SSW 3.0 mph 5.0 mph 75% 0.00 in
00:55 59.0 °F 51.1 °F 30.20 in Calm   5.0 mph 75% 0.00 in
01:00 58.9 °F 51.0 °F 30.20 in SSW 1.0 mph 5.0 mph 75% 0.00 in
01:05 58.4 °F 50.5 °F 30.20 in SSW 2.0 mph 5.0 mph 75% 0.00 in
01:10 58.2 °F 50.7 °F 30.20 in Calm   5.0 mph 76% 0.00 in
01:15 58.2 °F 51.0 °F 30.20 in SSW 3.0 mph 5.0 mph 77% 0.00 in
01:20 58.4 °F 51.2 °F 30.20 in SSW 2.0 mph 6.0 mph 77% 0.00 in
01:25 59.0 °F 51.8 °F 30.20 in SSW 4.0 mph 7.0 mph 77% 0.00 in
01:30 59.8 °F 52.2 °F 30.20 in SSW 4.0 mph 7.0 mph 76% 0.00 in
01:35 60.4 °F 52.1 °F 30.20 in SSW 5.0 mph 9.0 mph 74% 0.00 in
01:40 60.9 °F 52.2 °F 30.20 in SSW 5.0 mph 11.0 mph 73% 0.00 in
01:45 60.9 °F 51.8 °F 30.20 in SSW 4.0 mph 11.0 mph 72% 0.00 in
01:50 60.7 °F 51.6 °F 30.20 in SSW 5.0 mph 8.0 mph 72% 0.00 in
01:55 60.5 °F 51.4 °F 30.21 in SSW 4.0 mph 8.0 mph 72% 0.00 in
02:00 60.3 °F 51.2 °F 30.21 in SSW 5.0 mph 8.0 mph 72% 0.00 in
02:05 60.3 °F 51.2 °F 30.21 in SSW 5.0 mph 8.0 mph 72% 0.00 in
02:10 60.0 °F 51.0 °F 30.21 in SSW 4.0 mph 8.0 mph 72% 0.00 in
02:15 59.6 °F 50.6 °F 30.21 in SSW 4.0 mph 7.0 mph 72% 0.00 in
02:20 59.0 °F 50.0 °F 30.20 in SSW 3.0 mph 6.0 mph 72% 0.00 in
02:25 59.0 °F 50.4 °F 30.21 in SSW 4.0 mph 6.0 mph 73% 0.00 in
02:30 58.3 °F 50.1 °F 30.21 in SSW 3.0 mph 6.0 mph 74% 0.00 in
02:35 57.8 °F 49.6 °F 30.21 in SSW 3.0 mph 6.0 mph 74% 0.00 in
02:40 58.0 °F 49.8 °F 30.21 in SSW 4.0 mph 6.0 mph 74% 0.00 in
02:45 58.3 °F 49.7 °F 30.21 in SSW 2.0 mph 6.0 mph 73% 0.00 in
02:50 58.4 °F 49.4 °F 30.21 in SSW 3.0 mph 6.0 mph 72% 0.00 in
02:55 58.5 °F 49.5 °F 30.21 in SSW 3.0 mph 5.0 mph 72% 0.00 in
03:00 58.5 °F 49.1 °F 30.21 in SSW 2.0 mph 5.0 mph 71% 0.00 in
03:05 58.3 °F 48.9 °F 30.21 in SSW 2.0 mph 5.0 mph 71% 0.00 in
03:10 58.2 °F 48.9 °F 30.21 in SSW 2.0 mph 5.0 mph 71% 0.00 in
03:15 58.3 °F 48.9 °F 30.21 in SSW 2.0 mph 5.0 mph 71% 0.00 in
03:20 58.3 °F 48.9 °F 30.21 in SSW 3.0 mph 5.0 mph 71% 0.00 in
03:25 58.5 °F 48.8 °F 30.21 in SSW 2.0 mph 5.0 mph 70% 0.00 in
03:30 58.7 °F 49.0 °F 30.21 in SSW 2.0 mph 5.0 mph 70% 0.00 in
03:35 58.9 °F 49.1 °F 30.21 in SSW 4.0 mph 7.0 mph 70% 0.00 in
03:40 58.8 °F 48.7 °F 30.21 in SSW 3.0 mph 7.0 mph 69% 0.00 in
03:50 58.6 °F 48.9 °F 30.20 in SSW 4.0 mph 7.0 mph 70% 0.00 in
03:55 59.0 °F 48.9 °F 30.20 in SSW 3.0 mph 7.0 mph 69% 0.00 in
04:00 58.7 °F 48.6 °F 30.20 in SSW 4.0 mph 7.0 mph 69% 0.00 in
04:05 58.8 °F 48.7 °F 30.20 in SSW 4.0 mph 7.0 mph 69% 0.00 in
04:10 58.6 °F 48.5 °F 30.20 in SSW 4.0 mph 8.0 mph 69% 0.00 in
04:15 58.4 °F 48.7 °F 30.21 in SSW 4.0 mph 8.0 mph 70% 0.00 in
04:20 58.1 °F 48.4 °F 30.20 in SSW 3.0 mph 7.0 mph 70% 0.00 in
04:25 57.9 °F 48.2 °F 30.21 in SSW 5.0 mph 8.0 mph 70% 0.00 in
04:30 58.0 °F 48.3 °F 30.21 in SSW 5.0 mph 8.0 mph 70% 0.00 in
04:35 58.3 °F 48.6 °F 30.21 in SSW 5.0 mph 7.0 mph 70% 0.00 in
04:40 58.4 °F 48.7 °F 30.21 in SSW 4.0 mph 7.0 mph 70% 0.00 in
04:50 58.7 °F 49.0 °F 30.21 in SSW 5.0 mph 8.0 mph 70% 0.00 in
04:55 58.7 °F 49.0 °F 30.21 in SSW 5.0 mph 8.0 mph 70% 0.00 in
05:00 58.5 °F 48.8 °F 30.21 in SSW 5.0 mph 8.0 mph 70% 0.00 in
05:05 58.4 °F 48.7 °F 30.21 in SSW 5.0 mph 8.0 mph 70% 0.00 in
05:10 58.1 °F 48.4 °F 30.21 in SSW 5.0 mph 7.0 mph 70% 0.00 in
05:15 58.0 °F 48.7 °F 30.21 in SSW 4.0 mph 7.0 mph 71% 0.00 in
05:20 58.0 °F 48.7 °F 30.21 in SSW 5.0 mph 7.0 mph 71% 0.00 in
05:25 58.0 °F 48.7 °F 30.21 in SSW 5.0 mph 7.0 mph 71% 0.00 in
05:30 58.1 °F 48.8 °F 30.21 in SSW 5.0 mph 7.0 mph 71% 0.00 in
05:35 58.1 °F 48.8 °F 30.22 in SSW 4.0 mph 7.0 mph 71% 0.00 in
05:40 58.0 °F 48.7 °F 30.22 in SSW 5.0 mph 7.0 mph 71% 0.00 in
05:45 57.9 °F 48.6 °F 30.22 in SSW 5.0 mph 7.0 mph 71% 0.00 in
05:50 57.9 °F 48.6 °F 30.22 in SSW 3.0 mph 7.0 mph 71% 0.00 in
05:55 57.8 °F 48.5 °F 30.23 in SSW 2.0 mph 6.0 mph 71% 0.00 in
06:00 57.5 °F 48.2 °F 30.23 in SSW 2.0 mph 6.0 mph 71% 0.00 in
06:05 57.3 °F 48.4 °F 30.23 in SSW 3.0 mph 5.0 mph 72% 0.00 in
06:10 57.2 °F 48.3 °F 30.23 in SSW 3.0 mph 7.0 mph 72% 0.00 in
06:15 57.6 °F 48.6 °F 30.23 in SSW 5.0 mph 7.0 mph 72% 0.00 in
06:20 57.9 °F 48.9 °F 30.23 in SSW 6.0 mph 9.0 mph 72% 0.00 in
06:25 58.0 °F 49.0 °F 30.23 in SSW 4.0 mph 9.0 mph 72% 0.00 in
06:30 57.8 °F 48.8 °F 30.24 in SSW 5.0 mph 9.0 mph 72% 0.00 in
06:40 57.5 °F 48.6 °F 30.24 in SSW 2.0 mph 9.0 mph 72% 0.00 in
06:45 57.0 °F 48.4 °F 30.24 in SSW 4.0 mph 9.0 mph 73% 0.00 in
06:50 56.6 °F 48.1 °F 30.24 in SSW 3.0 mph 7.0 mph 73% 0.00 in
06:55 56.4 °F 48.2 °F 30.24 in SSW 4.0 mph 7.0 mph 74% 0.00 in
07:00 56.2 °F 48.0 °F 30.24 in SSW 5.0 mph 7.0 mph 74% 0.00 in
07:05 55.9 °F 47.7 °F 30.25 in SSW 3.0 mph 7.0 mph 74% 0.00 in
07:09 55.5 °F 47.7 °F 30.25 in SSW 1.0 mph 6.0 mph 75% 0.00 in
07:15 55.3 °F 47.9 °F 30.25 in SSW 4.0 mph 7.0 mph 76% 0.00 in
07:20 55.5 °F 48.4 °F 30.25 in SSW 3.0 mph 7.0 mph 77% 0.00 in
07:30 56.1 °F 48.6 °F 30.25 in SSW 2.0 mph 7.0 mph 76% 0.00 in
07:35 56.5 °F 49.0 °F 30.25 in SSW 2.0 mph 7.0 mph 76% 0.00 in
07:40 56.9 °F 49.4 °F 30.26 in SSW 1.0 mph 7.0 mph 76% 0.00 in
07:45 57.1 °F 49.6 °F 30.26 in SSW 2.0 mph 7.0 mph 76% 0.00 in
07:50 57.3 °F 49.8 °F 30.26 in SSW 3.0 mph 8.0 mph 76% 0.00 in
07:55 57.7 °F 49.8 °F 30.26 in SSW 3.0 mph 9.0 mph 75% 0.00 in
08:00 58.1 °F 50.2 °F 30.26 in SSW 5.0 mph 9.0 mph 75% 0.00 in
08:09 58.6 °F 50.7 °F 30.26 in SSW 4.0 mph 10.0 mph 75% 0.00 in
08:15 58.7 °F 50.4 °F 30.26 in SSW 4.0 mph 10.0 mph 74% 0.00 in
08:20 59.0 °F 50.7 °F 30.26 in SSW 5.0 mph 10.0 mph 74% 0.00 in
08:25 59.0 °F 50.7 °F 30.26 in SSW 5.0 mph 10.0 mph 74% 0.00 in
08:30 59.2 °F 50.9 °F 30.26 in SSW 5.0 mph 11.0 mph 74% 0.00 in
08:40 60.2 °F 51.1 °F 30.26 in SSW 6.0 mph 10.0 mph 72% 0.00 in
08:45 60.6 °F 51.5 °F 30.26 in SSW 3.0 mph 13.0 mph 72% 0.00 in
08:50 61.1 °F 51.6 °F 30.26 in SSW 4.0 mph 13.0 mph 71% 0.00 in
08:55 61.5 °F 51.6 °F 30.26 in SSW 6.0 mph 10.0 mph 70% 0.00 in
09:00 61.8 °F 52.3 °F 30.26 in SSW 4.0 mph 11.0 mph 71% 0.00 in
09:05 62.4 °F 52.5 °F 30.26 in SSW 8.0 mph 15.0 mph 70% 0.00 in
09:09 62.4 °F 52.1 °F 30.26 in SSW 5.0 mph 15.0 mph 69% 0.00 in
09:15 62.8 °F 52.5 °F 30.26 in SSW 5.0 mph 12.0 mph 69% 0.00 in
09:20 63.5 °F 52.8 °F 30.26 in SSW 6.0 mph 13.0 mph 68% 0.00 in
09:25 63.8 °F 53.0 °F 30.26 in SW 5.0 mph 13.0 mph 68% 0.00 in
09:30 64.0 °F 53.2 °F 30.26 in SSW 7.0 mph 12.0 mph 68% 0.00 in
09:35 64.2 °F 53.0 °F 30.26 in SW 7.0 mph 12.0 mph 67% 0.00 in
09:40 64.0 °F 52.8 °F 30.26 in SSW 7.0 mph 12.0 mph 67% 0.00 in
09:45 64.1 °F 52.9 °F 30.26 in SW 9.0 mph 14.0 mph 67% 0.00 in
09:55 64.5 °F 53.3 °F 30.26 in SSW 4.0 mph 12.0 mph 67% 0.00 in
10:00 64.8 °F 53.2 °F 30.27 in SW 7.0 mph 12.0 mph 66% 0.00 in
10:04 65.2 °F 53.6 °F 30.27 in SW 5.0 mph 11.0 mph 66% 0.00 in
10:10 65.6 °F 53.5 °F 30.27 in SSW 5.0 mph 12.0 mph 65% 0.00 in
10:14 65.8 °F 53.7 °F 30.27 in SSW 4.0 mph 12.0 mph 65% 0.00 in
10:20 66.6 °F 54.1 °F 30.27 in SSW 2.0 mph 10.0 mph 64% 0.00 in
10:25 67.6 °F 54.1 °F 30.26 in SW 2.0 mph 8.0 mph 62% 0.00 in
10:29 67.9 °F 53.5 °F 30.26 in SSW 4.0 mph 8.0 mph 60% 0.00 in
10:35 68.6 °F 54.6 °F 30.26 in South 1.0 mph 8.0 mph 61% 0.00 in
10:40 69.5 °F 54.6 °F 30.26 in South 3.0 mph 7.0 mph 59% 0.00 in
10:50 70.4 °F 54.9 °F 30.26 in SW 3.0 mph 5.0 mph 58% 0.00 in
11:00 70.8 °F 54.8 °F 30.25 in Calm   7.0 mph 57% 0.00 in
11:05 71.2 °F 54.7 °F 30.25 in SSW 5.0 mph 7.0 mph 56% 0.00 in
11:10 71.7 °F 55.2 °F 30.25 in Calm   7.0 mph 56% 0.00 in
11:15 72.0 °F 54.5 °F 30.25 in SSE 1.0 mph 7.0 mph 54% 0.00 in
11:20 72.1 °F 55.1 °F 30.25 in South 1.0 mph 7.0 mph 55% 0.00 in
11:25 72.4 °F 54.8 °F 30.25 in Calm   7.0 mph 54% 0.00 in
11:30 72.1 °F 55.1 °F 30.24 in West 1.0 mph 6.0 mph 55% 0.00 in
11:34 72.0 °F 54.5 °F 30.24 in Calm   8.0 mph 54% 0.00 in
11:40 72.2 °F 55.2 °F 30.24 in Calm   8.0 mph 55% 0.00 in
11:45 73.0 °F 54.9 °F 30.24 in SSW 2.0 mph 7.0 mph 53% 0.00 in
11:55 73.9 °F 55.2 °F 30.23 in SSW 3.0 mph 7.0 mph 52% 0.00 in
12:00 73.8 °F 55.6 °F 30.23 in Calm   7.0 mph 53% 0.00 in
12:05 73.8 °F 53.5 °F 30.23 in West 1.0 mph 9.0 mph 49% 0.00 in
12:10 74.2 °F 53.8 °F 30.23 in Calm   9.0 mph 49% 0.00 in
12:15 74.6 °F 54.2 °F 30.22 in Calm   6.0 mph 49% 0.00 in
12:20 75.0 °F 54.0 °F 30.22 in WSW 1.0 mph 5.0 mph 48% 0.00 in
12:24 75.4 °F 54.4 °F 30.22 in WNW 1.0 mph 5.0 mph 48% 0.00 in
12:30 75.6 °F 54.0 °F 30.22 in West 2.0 mph 7.0 mph 47% 0.00 in
12:35 75.8 °F 54.7 °F 30.22 in Calm   7.0 mph 48% 0.00 in
12:45 75.5 °F 53.9 °F 30.21 in West 1.0 mph 8.0 mph 47% 0.00 in
12:50 75.6 °F 53.4 °F 30.21 in WSW 2.0 mph 8.0 mph 46% 0.00 in
12:55 75.6 °F 54.0 °F 30.21 in WNW 2.0 mph 8.0 mph 47% 0.00 in
12:59 75.9 °F 53.7 °F 30.21 in West 2.0 mph 8.0 mph 46% 0.00 in
13:04 76.0 °F 53.2 °F 30.21 in West 2.0 mph 9.0 mph 45% 0.00 in
13:10 76.2 °F 52.7 °F 30.21 in SW 4.0 mph 9.0 mph 44% 0.00 in
13:14 76.4 °F 52.9 °F 30.20 in WSW 5.0 mph 8.0 mph 44% 0.00 in
13:19 76.5 °F 53.0 °F 30.20 in SSW 4.0 mph 11.0 mph 44% 0.00 in
13:25 76.9 °F 51.4 °F 30.20 in West 5.0 mph 11.0 mph 41% 0.00 in
13:30 77.2 °F 51.7 °F 30.19 in West 5.0 mph 9.0 mph 41% 0.00 in
13:39 76.7 °F 51.3 °F 30.19 in Calm   10.0 mph 41% 0.00 in
13:44 76.9 °F 51.4 °F 30.18 in WNW 4.0 mph 8.0 mph 41% 0.00 in
13:50 77.2 °F 53.0 °F 30.18 in WSW 3.0 mph 9.0 mph 43% 0.00 in
13:55 77.6 °F 52.1 °F 30.18 in WNW 6.0 mph 9.0 mph 41% 0.00 in
14:00 77.5 °F 52.6 °F 30.18 in West 2.0 mph 9.0 mph 42% 0.00 in
14:04 77.8 °F 52.2 °F 30.18 in SW 1.0 mph 8.0 mph 41% 0.00 in
14:10 77.8 °F 51.6 °F 30.17 in SW 2.0 mph 8.0 mph 40% 0.00 in
14:14 78.2 °F 52.6 °F 30.17 in West 2.0 mph 11.0 mph 41% 0.00 in
14:20 78.7 °F 52.4 °F 30.17 in WSW 5.0 mph 11.0 mph 40% 0.00 in
14:25 78.7 °F 51.7 °F 30.17 in West 5.0 mph 11.0 mph 39% 0.00 in
14:34 78.4 °F 51.4 °F 30.16 in Calm   9.0 mph 39% 0.00 in
14:40 79.1 °F 51.3 °F 30.16 in West 3.0 mph 6.0 mph 38% 0.00 in
14:45 78.7 °F 51.7 °F 30.16 in South 4.0 mph 9.0 mph 39% 0.00 in
14:49 78.6 °F 51.6 °F 30.16 in Calm   9.0 mph 39% 0.00 in
14:54 78.7 °F 51.7 °F 30.15 in WSW 1.0 mph 6.0 mph 39% 0.00 in
15:00 79.0 °F 51.3 °F 30.15 in WNW 6.0 mph 13.0 mph 38% 0.00 in
15:04 79.3 °F 50.8 °F 30.15 in SW 6.0 mph 13.0 mph 37% 0.00 in
15:10 78.9 °F 50.4 °F 30.15 in SW 4.0 mph 10.0 mph 37% 0.00 in
15:15 78.8 °F 50.4 °F 30.15 in South 4.0 mph 10.0 mph 37% 0.00 in
15:20 79.1 °F 51.3 °F 30.15 in SW 2.0 mph 9.0 mph 38% 0.00 in
15:25 79.4 °F 51.6 °F 30.15 in West 4.0 mph 10.0 mph 38% 0.00 in
15:30 79.8 °F 51.2 °F 30.15 in SW 1.0 mph 10.0 mph 37% 0.00 in
15:40 80.3 °F 50.2 °F 30.14 in WSW 2.0 mph 9.0 mph 35% 0.00 in
15:45 80.0 °F 51.4 °F 30.14 in SW 2.0 mph 10.0 mph 37% 0.00 in
15:55 79.0 °F 50.5 °F 30.14 in SSW 2.0 mph 13.0 mph 37% 0.00 in
15:59 79.4 °F 51.6 °F 30.14 in SSW 2.0 mph 13.0 mph 38% 0.00 in
16:05 79.7 °F 51.9 °F 30.14 in Calm   8.0 mph 38% 0.00 in
16:09 79.9 °F 52.1 °F 30.14 in WNW 3.0 mph 7.0 mph 38% 0.00 in
16:14 79.7 °F 51.2 °F 30.14 in SSW 3.0 mph 7.0 mph 37% 0.00 in
16:20 79.4 °F 51.6 °F 30.14 in SSW 2.0 mph 7.0 mph 38% 0.00 in
16:25 79.8 °F 52.0 °F 30.14 in South 3.0 mph 7.0 mph 38% 0.00 in
16:29 80.0 °F 52.9 °F 30.14 in SSW 1.0 mph 7.0 mph 39% 0.00 in
16:35 79.6 °F 51.1 °F 30.13 in SSW 2.0 mph 9.0 mph 37% 0.00 in
16:40 79.8 °F 52.0 °F 30.13 in SSW 1.0 mph 9.0 mph 38% 0.00 in
16:49 79.2 °F 51.4 °F 30.13 in South 2.0 mph 8.0 mph 38% 0.00 in
16:54 79.4 °F 51.6 °F 30.13 in SW 3.0 mph 7.0 mph 38% 0.00 in
17:00 79.4 °F 52.3 °F 30.13 in SW 3.0 mph 10.0 mph 39% 0.00 in
17:04 79.2 °F 52.1 °F 30.12 in SW 3.0 mph 10.0 mph 39% 0.00 in
17:10 79.3 °F 51.5 °F 30.12 in SW 3.0 mph 9.0 mph 38% 0.00 in
17:14 79.2 °F 52.1 °F 30.12 in SSW 5.0 mph 10.0 mph 39% 0.00 in
17:19 78.7 °F 51.7 °F 30.12 in SW 1.0 mph 10.0 mph 39% 0.00 in
17:25 78.7 °F 51.7 °F 30.13 in SSW 1.0 mph 9.0 mph 39% 0.00 in
17:30 78.7 °F 51.7 °F 30.13 in SW 3.0 mph 8.0 mph 39% 0.00 in
17:39 78.5 °F 51.5 °F 30.13 in SSW 3.0 mph 8.0 mph 39% 0.00 in
17:45 78.1 °F 51.2 °F 30.12 in SSW 2.0 mph 8.0 mph 39% 0.00 in
17:50 78.1 °F 51.8 °F 30.13 in Calm   8.0 mph 40% 0.00 in
17:54 78.0 °F 51.8 °F 30.13 in SW 3.0 mph 6.0 mph 40% 0.00 in
17:59 77.8 °F 51.6 °F 30.13 in SW 5.0 mph 7.0 mph 40% 0.00 in
18:04 77.6 °F 52.1 °F 30.13 in SSW 1.0 mph 7.0 mph 41% 0.00 in
18:10 77.6 °F 52.1 °F 30.13 in SSW 1.0 mph 6.0 mph 41% 0.00 in
18:14 77.4 °F 51.9 °F 30.13 in Calm   5.0 mph 41% 0.00 in
18:19 77.1 °F 51.6 °F 30.13 in Calm   1.0 mph 41% 0.00 in
18:25 76.9 °F 52.1 °F 30.13 in South 1.0 mph 4.0 mph 42% 0.00 in
18:29 76.6 °F 51.8 °F 30.13 in Calm   4.0 mph 42% 0.00 in
18:34 76.2 °F 51.5 °F 30.13 in Calm   1.0 mph 42% 0.00 in
18:40 75.9 °F 51.2 °F 30.13 in Calm   1.0 mph 42% 0.00 in
18:50 74.8 °F 50.8 °F 30.13 in Calm   3.0 mph 43% 0.00 in
18:59 71.5 °F 51.9 °F 30.13 in Calm   1.0 mph 50% 0.00 in
19:05 70.4 °F 52.0 °F 30.13 in Calm     52% 0.00 in
19:09 69.7 °F 51.3 °F 30.13 in Calm     52% 0.00 in
19:14 69.2 °F 51.4 °F 30.13 in Calm     53% 0.00 in
19:19 68.6 °F 50.8 °F 30.13 in Calm     53% 0.00 in
19:25 68.1 °F 50.8 °F 30.13 in Calm     54% 0.00 in
19:29 67.7 °F 50.5 °F 30.13 in Calm     54% 0.00 in
19:34 67.4 °F 49.7 °F 30.13 in Calm   1.0 mph 53% 0.00 in
19:39 67.1 °F 49.4 °F 30.13 in Calm   2.0 mph 53% 0.00 in
19:44 67.0 °F 48.8 °F 30.13 in Calm   2.0 mph 52% 0.00 in
19:50 67.4 °F 48.1 °F 30.13 in Calm   3.0 mph 50% 0.00 in
19:54 67.6 °F 47.8 °F 30.13 in Calm   3.0 mph 49% 0.00 in
19:59 67.7 °F 47.9 °F 30.13 in SW 1.0 mph 3.0 mph 49% 0.00 in
20:04 67.7 °F 47.3 °F 30.13 in Calm   4.0 mph 48% 0.00 in
20:09 67.7 °F 47.3 °F 30.14 in SSW 1.0 mph 4.0 mph 48% 0.00 in
20:14 67.7 °F 47.3 °F 30.14 in Calm   3.0 mph 48% 0.00 in
20:19 67.7 °F 47.3 °F 30.14 in SSW 1.0 mph 6.0 mph 48% 0.00 in
20:25 67.5 °F 47.1 °F 30.13 in Calm   6.0 mph 48% 0.00 in
20:30 67.3 °F 47.0 °F 30.13 in Calm   3.0 mph 48% 0.00 in
20:40 66.4 °F 47.2 °F 30.14 in Calm   2.0 mph 50% 0.00 in
20:45 65.9 °F 46.8 °F 30.14 in Calm   3.0 mph 50% 0.00 in
20:54 64.9 °F 46.4 °F 30.14 in Calm   4.0 mph 51% 0.00 in
21:00 64.5 °F 46.5 °F 30.14 in SSW 2.0 mph 5.0 mph 52% 0.00 in
21:04 64.3 °F 46.8 °F 30.13 in SSW 2.0 mph 5.0 mph 53% 0.00 in
21:09 64.5 °F 47.0 °F 30.13 in SSW 1.0 mph 5.0 mph 53% 0.00 in
21:15 64.7 °F 46.7 °F 30.13 in SSW 2.0 mph 6.0 mph 52% 0.00 in
21:19 64.9 °F 46.4 °F 30.13 in SSW 2.0 mph 7.0 mph 51% 0.00 in
21:25 65.1 °F 46.0 °F 30.13 in SSW 3.0 mph 7.0 mph 50% 0.00 in
21:30 65.0 °F 45.9 °F 30.13 in SSW 2.0 mph 6.0 mph 50% 0.00 in
21:35 64.9 °F 45.8 °F 30.14 in SSW 3.0 mph 5.0 mph 50% 0.00 in
21:40 64.8 °F 45.2 °F 30.14 in Calm   5.0 mph 49% 0.00 in
21:50 64.7 °F 45.1 °F 30.14 in SSW 2.0 mph 6.0 mph 49% 0.00 in
21:55 64.6 °F 44.5 °F 30.14 in SSW 3.0 mph 6.0 mph 48% 0.00 in
21:59 64.6 °F 44.5 °F 30.14 in SSW 4.0 mph 5.0 mph 48% 0.00 in
22:04 64.9 °F 44.8 °F 30.14 in SSW 4.0 mph 7.0 mph 48% 0.00 in
22:09 65.1 °F 44.4 °F 30.14 in South 4.0 mph 7.0 mph 47% 0.00 in
22:15 65.2 °F 44.5 °F 30.14 in SSW 2.0 mph 7.0 mph 47% 0.00 in
22:19 65.2 °F 44.5 °F 30.14 in SSW 4.0 mph 7.0 mph 47% 0.00 in
22:24 65.3 °F 45.1 °F 30.14 in SSW 3.0 mph 7.0 mph 48% 0.00 in
22:29 65.2 °F 45.0 °F 30.14 in SSW 3.0 mph 7.0 mph 48% 0.00 in
22:35 65.1 °F 44.9 °F 30.14 in SSW 3.0 mph 7.0 mph 48% 0.00 in
22:40 64.8 °F 45.2 °F 30.14 in SSW 3.0 mph 7.0 mph 49% 0.00 in
22:49 64.7 °F 45.1 °F 30.13 in SSW 3.0 mph 7.0 mph 49% 0.00 in
22:54 64.7 °F 45.6 °F 30.13 in SSW 3.0 mph 7.0 mph 50% 0.00 in
22:59 64.3 °F 45.3 °F 30.13 in SSW 1.0 mph 6.0 mph 50% 0.00 in
23:04 63.9 °F 45.4 °F 30.13 in SSW 4.0 mph 6.0 mph 51% 0.00 in
23:09 63.9 °F 45.4 °F 30.13 in SSW 4.0 mph 8.0 mph 51% 0.00 in
23:14 63.7 °F 45.2 °F 30.13 in SSW 4.0 mph 8.0 mph 51% 0.00 in
23:19 63.8 °F 45.3 °F 30.13 in SSW 4.0 mph 9.0 mph 51% 0.00 in
23:24 64.1 °F 45.6 °F 30.13 in SSW 4.0 mph 9.0 mph 51% 0.00 in
23:29 64.0 °F 46.0 °F 30.13 in SSW 5.0 mph 8.0 mph 52% 0.00 in
23:34 64.1 °F 46.1 °F 30.13 in SSW 4.0 mph 7.0 mph 52% 0.00 in
23:40 64.0 °F 46.0 °F 30.13 in SSW 4.0 mph 8.0 mph 52% 0.00 in
23:45 63.9 °F 45.9 °F 30.13 in SSW 5.0 mph 9.0 mph 52% 0.00 in
23:50 63.5 °F 46.1 °F 30.13 in SSW 4.0 mph 9.0 mph 53% 0.00 in
23:54 63.4 °F 46.0 °F 30.13 in SSW 3.0 mph 7.0 mph 53% 0.00 in
23:59 63.1 °F 46.2 °F 30.13 in SSW 3.0 mph 7.0 mph 54% 0.00 in
Westford Weather
Compliments of Weather Underground

 
 
Current Radar Loop:

Copyright © WestfordWeather.net 2007-2014. All rights reserved.